createdAt,value
2017-10-10T00:00:40.416Z,11.60
2017-10-10T00:03:07.962Z,11.60
2017-10-10T00:05:35.514Z,11.60
2017-10-10T00:08:03.105Z,11.60
2017-10-10T00:10:30.648Z,11.60
2017-10-10T00:13:01.495Z,11.60
2017-10-10T00:15:29.038Z,11.60
2017-10-10T00:17:56.592Z,11.60
2017-10-10T00:20:24.327Z,11.60
2017-10-10T00:22:51.882Z,11.60
2017-10-10T00:25:20.745Z,11.60
2017-10-10T00:27:48.284Z,11.60
2017-10-10T00:30:15.846Z,11.60
2017-10-10T00:32:43.577Z,11.60
2017-10-10T00:35:11.162Z,11.60
2017-10-10T00:37:38.711Z,11.60
2017-10-10T00:40:06.598Z,11.60
2017-10-10T00:42:34.157Z,11.60
2017-10-10T00:45:01.702Z,11.60
2017-10-10T00:47:29.396Z,11.60
2017-10-10T00:49:56.977Z,11.60
2017-10-10T00:52:25.290Z,11.60
2017-10-10T00:54:52.946Z,11.50
2017-10-10T00:57:20.496Z,11.60
2017-10-10T00:59:48.083Z,11.60
2017-10-10T01:02:15.621Z,11.60
2017-10-10T01:04:43.218Z,11.60
2017-10-10T01:07:10.766Z,11.60
2017-10-10T01:09:40.068Z,11.60
2017-10-10T01:12:07.610Z,11.60
2017-10-10T01:14:35.239Z,11.60
2017-10-10T01:17:03.886Z,11.60
2017-10-10T01:19:31.431Z,11.60
2017-10-10T01:21:59.418Z,11.60
2017-10-10T01:24:26.958Z,11.60
2017-10-10T01:26:55.507Z,11.60
2017-10-10T01:29:23.859Z,11.60
2017-10-10T01:31:51.451Z,11.60
2017-10-10T01:34:19.761Z,11.60
2017-10-10T01:36:47.422Z,11.60
2017-10-10T01:39:14.970Z,11.60
2017-10-10T01:41:42.575Z,11.60
2017-10-10T01:44:10.129Z,11.60
2017-10-10T01:46:37.678Z,11.60
2017-10-10T01:49:07.693Z,11.50
2017-10-10T01:51:35.244Z,11.60
2017-10-10T01:54:02.883Z,11.60
2017-10-10T01:56:30.781Z,11.60
2017-10-10T01:58:58.329Z,11.60
2017-10-10T02:01:25.881Z,11.60
2017-10-10T02:03:53.475Z,11.60
2017-10-10T02:06:21.049Z,11.60
2017-10-10T02:08:49.077Z,11.60
2017-10-10T02:11:16.682Z,11.60
2017-10-10T02:13:44.225Z,11.60
2017-10-10T02:16:15.444Z,11.60
2017-10-10T02:18:42.989Z,11.60
2017-10-10T02:21:10.536Z,11.60
2017-10-10T02:23:38.125Z,11.50
2017-10-10T02:26:06.220Z,11.50
2017-10-10T02:28:33.763Z,11.60
2017-10-10T02:31:01.599Z,11.50
2017-10-10T02:33:33.816Z,11.50
2017-10-10T02:36:01.365Z,11.50
2017-10-10T02:38:28.913Z,11.50
2017-10-10T02:40:56.849Z,11.60
2017-10-10T02:43:24.459Z,11.50
2017-10-10T02:45:52.018Z,11.50
2017-10-10T02:48:19.614Z,11.50
2017-10-10T02:50:47.933Z,11.50
2017-10-10T02:53:15.513Z,11.50
2017-10-10T02:55:43.055Z,11.50
2017-10-10T02:58:10.778Z,11.50
2017-10-10T03:00:39.100Z,11.50
2017-10-10T03:03:07.964Z,11.50
2017-10-10T03:05:35.517Z,11.50
2017-10-10T03:08:03.816Z,11.50
2017-10-10T03:10:31.810Z,11.50
2017-10-10T03:12:59.357Z,11.50
2017-10-10T03:15:27.122Z,11.50
2017-10-10T03:17:55.082Z,11.50
2017-10-10T03:20:22.621Z,11.50
2017-10-10T03:22:50.929Z,11.50
2017-10-10T03:25:18.518Z,11.50
2017-10-10T03:27:46.062Z,11.50
2017-10-10T03:30:13.651Z,11.50
2017-10-10T03:32:41.763Z,11.50
2017-10-10T03:35:09.397Z,11.50
2017-10-10T03:37:37.709Z,11.50
2017-10-10T03:40:05.250Z,11.50
2017-10-10T03:42:32.839Z,11.50
2017-10-10T03:45:01.155Z,11.50
2017-10-10T03:47:29.198Z,11.50
2017-10-10T03:49:57.501Z,11.50
2017-10-10T03:52:25.046Z,11.50
2017-10-10T03:54:52.626Z,11.50
2017-10-10T03:57:20.213Z,11.50
2017-10-10T03:59:49.868Z,11.50
2017-10-10T04:02:17.461Z,11.50
2017-10-10T04:04:45.006Z,11.50
2017-10-10T04:07:12.994Z,11.50
2017-10-10T04:09:40.538Z,11.50
2017-10-10T04:12:08.129Z,11.50
2017-10-10T04:14:36.483Z,11.50
2017-10-10T04:17:04.026Z,11.50
2017-10-10T04:19:31.609Z,11.50
2017-10-10T04:21:59.153Z,11.50
2017-10-10T04:24:27.217Z,11.50
2017-10-10T04:26:54.762Z,11.50
2017-10-10T04:29:22.307Z,11.50
2017-10-10T04:31:49.892Z,11.50
2017-10-10T04:34:17.475Z,11.50
2017-10-10T04:36:45.031Z,11.50
2017-10-10T04:39:12.712Z,11.50
2017-10-10T04:41:41.021Z,11.50
2017-10-10T04:44:08.618Z,11.50
2017-10-10T04:46:36.153Z,11.50
2017-10-10T04:49:03.689Z,11.50
2017-10-10T04:51:31.277Z,11.50
2017-10-10T04:53:58.812Z,11.50
2017-10-10T04:56:27.045Z,11.50
2017-10-10T04:58:54.588Z,11.50
2017-10-10T05:01:22.133Z,11.50
2017-10-10T05:03:49.842Z,11.50
2017-10-10T05:06:17.778Z,11.50
2017-10-10T05:08:45.317Z,11.50
2017-10-10T05:11:13.015Z,11.50
2017-10-10T05:13:40.866Z,11.50
2017-10-10T05:16:08.450Z,11.50
2017-10-10T05:18:35.992Z,11.50
2017-10-10T05:21:03.597Z,11.50
2017-10-10T05:23:31.906Z,11.50
2017-10-10T05:25:59.472Z,11.50
2017-10-10T05:28:27.066Z,11.50
2017-10-10T05:30:58.536Z,11.50
2017-10-10T05:33:26.844Z,11.50
2017-10-10T05:35:54.391Z,11.50
2017-10-10T05:38:22.740Z,11.50
2017-10-10T05:40:50.286Z,11.50
2017-10-10T05:43:18.347Z,11.50
2017-10-10T05:45:45.924Z,11.50
2017-10-10T05:48:13.470Z,11.50
2017-10-10T05:50:41.202Z,11.50
2017-10-10T05:53:08.749Z,11.50
2017-10-10T05:55:36.294Z,11.50
2017-10-10T05:58:04.649Z,11.50
2017-10-10T06:00:32.198Z,11.50
2017-10-10T06:02:59.813Z,11.50
2017-10-10T06:05:27.385Z,11.60
2017-10-10T06:07:57.638Z,11.60
2017-10-10T06:10:25.185Z,11.60
2017-10-10T06:12:53.056Z,11.60
2017-10-10T06:15:20.602Z,11.60
2017-10-10T06:17:48.147Z,11.60
2017-10-10T06:20:15.741Z,11.60
2017-10-10T06:22:43.325Z,11.60
2017-10-10T06:25:12.397Z,11.60
2017-10-10T06:27:40.214Z,11.60
2017-10-10T06:30:08.572Z,11.70
2017-10-10T06:32:36.162Z,11.60
2017-10-10T06:35:03.712Z,11.70
2017-10-10T06:37:32.065Z,11.70
2017-10-10T06:39:59.650Z,11.70
2017-10-10T06:42:27.959Z,11.70
2017-10-10T06:44:55.734Z,11.70
2017-10-10T06:47:23.281Z,11.70
2017-10-10T06:49:50.901Z,11.70
2017-10-10T06:52:19.215Z,11.70
2017-10-10T06:54:46.761Z,11.70
2017-10-10T06:57:14.351Z,11.70
2017-10-10T06:59:41.892Z,11.70
2017-10-10T07:02:09.891Z,11.70
2017-10-10T07:04:37.441Z,11.70
2017-10-10T07:07:05.006Z,11.70
2017-10-10T07:09:32.587Z,11.70
2017-10-10T07:12:00.142Z,11.80
2017-10-10T07:14:27.726Z,11.80
2017-10-10T07:16:55.457Z,11.80
2017-10-10T07:19:22.997Z,11.80
2017-10-10T07:21:50.746Z,11.80
2017-10-10T07:24:18.652Z,11.80
2017-10-10T07:26:46.361Z,11.80
2017-10-10T07:29:14.671Z,11.90
2017-10-10T07:31:42.253Z,11.90
2017-10-10T07:34:15.234Z,11.90
2017-10-10T07:36:42.770Z,11.90
2017-10-10T07:39:10.313Z,11.90
2017-10-10T07:41:38.662Z,12.00
2017-10-10T07:44:06.261Z,12.00
2017-10-10T07:46:33.801Z,12.00
2017-10-10T07:49:02.109Z,12.00
2017-10-10T07:51:29.744Z,12.00
2017-10-10T07:53:58.053Z,12.00
2017-10-10T07:56:25.722Z,12.00
2017-10-10T07:58:53.265Z,12.00
2017-10-10T08:01:20.858Z,12.00
2017-10-10T08:03:48.404Z,12.00
2017-10-10T08:06:16.032Z,12.00
2017-10-10T08:08:43.661Z,12.00
2017-10-10T08:11:11.214Z,12.10
2017-10-10T08:13:39.017Z,12.10
2017-10-10T08:16:07.329Z,12.10
2017-10-10T08:18:34.870Z,12.10
2017-10-10T08:21:02.729Z,12.10
2017-10-10T08:23:30.273Z,12.20
2017-10-10T08:26:05.894Z,12.20
2017-10-10T08:28:33.541Z,12.20
2017-10-10T08:31:01.090Z,12.20
2017-10-10T08:33:28.686Z,12.30
2017-10-10T08:35:56.237Z,12.30
2017-10-10T08:38:23.823Z,12.40
2017-10-10T08:40:52.135Z,12.40
2017-10-10T08:43:20.229Z,12.40
2017-10-10T08:45:47.773Z,12.40
2017-10-10T08:48:15.361Z,12.40
2017-10-10T08:50:43.102Z,12.40
2017-10-10T08:53:10.689Z,12.40
2017-10-10T08:55:38.241Z,12.40
2017-10-10T08:58:05.825Z,12.40
2017-10-10T09:00:33.702Z,12.50
2017-10-10T09:03:02.006Z,12.60
2017-10-10T09:05:29.546Z,12.60
2017-10-10T09:07:57.949Z,12.70
2017-10-10T09:10:25.615Z,12.70
2017-10-10T09:12:53.212Z,12.70
2017-10-10T09:15:20.868Z,12.80
2017-10-10T09:17:48.470Z,12.90
2017-10-10T09:20:16.803Z,13.00
2017-10-10T09:22:44.760Z,13.00
2017-10-10T09:25:12.305Z,13.10
2017-10-10T09:27:40.576Z,13.10
2017-10-10T09:30:08.261Z,13.30
2017-10-10T09:32:36.253Z,13.40
2017-10-10T09:35:03.801Z,13.50
2017-10-10T09:37:31.342Z,13.60
2017-10-10T09:39:58.934Z,13.60
2017-10-10T09:42:26.871Z,13.60
2017-10-10T09:44:54.427Z,13.60
2017-10-10T09:47:21.971Z,13.50
2017-10-10T09:49:49.557Z,13.50
2017-10-10T09:52:17.092Z,13.50
2017-10-10T09:54:48.381Z,13.50
2017-10-10T09:57:15.923Z,13.50
2017-10-10T09:59:47.190Z,13.50
2017-10-10T10:02:14.736Z,13.50
2017-10-10T10:04:42.322Z,13.50
2017-10-10T10:07:09.881Z,13.50
2017-10-10T10:09:37.729Z,13.50
2017-10-10T10:12:05.272Z,13.60
2017-10-10T10:14:32.817Z,13.60
2017-10-10T10:17:00.607Z,13.60
2017-10-10T10:19:28.141Z,13.70
2017-10-10T10:21:55.750Z,13.70
2017-10-10T10:24:23.289Z,13.70
2017-10-10T10:26:50.973Z,13.70
2017-10-10T10:29:18.509Z,13.70
2017-10-10T10:31:46.485Z,13.70
2017-10-10T10:34:14.029Z,13.70
2017-10-10T10:36:41.573Z,13.70
2017-10-10T10:39:09.239Z,13.70
2017-10-10T10:41:36.821Z,13.70
2017-10-10T10:44:04.366Z,13.70
2017-10-10T10:46:32.361Z,13.70
2017-10-10T10:48:59.907Z,13.70
2017-10-10T10:51:27.450Z,13.70
2017-10-10T10:53:55.026Z,13.70
2017-10-10T10:56:22.566Z,13.70
2017-10-10T10:58:50.235Z,13.80
2017-10-10T11:01:17.829Z,13.90
2017-10-10T11:03:45.373Z,13.90
2017-10-10T11:06:12.962Z,14.00
2017-10-10T11:08:40.546Z,14.00
2017-10-10T11:11:09.309Z,14.20
2017-10-10T11:13:36.849Z,14.20
2017-10-10T11:16:09.656Z,14.30
2017-10-10T11:18:37.201Z,14.40
2017-10-10T11:21:04.747Z,14.50
2017-10-10T11:23:32.441Z,14.60
2017-10-10T11:26:00.050Z,14.60
2017-10-10T11:28:27.902Z,14.60
2017-10-10T11:30:55.496Z,14.60
2017-10-10T11:33:23.077Z,14.60
2017-10-10T11:35:50.705Z,14.60
2017-10-10T11:38:19.018Z,14.60
2017-10-10T11:40:46.553Z,14.60
2017-10-10T11:43:14.207Z,14.60
2017-10-10T11:45:41.747Z,14.60
2017-10-10T11:48:09.334Z,14.60
2017-10-10T11:50:36.878Z,14.60
2017-10-10T11:53:04.887Z,14.50
2017-10-10T11:55:32.561Z,14.50
2017-10-10T11:58:00.117Z,14.40
2017-10-10T12:00:27.765Z,14.40
2017-10-10T12:02:55.353Z,14.40
2017-10-10T12:05:22.908Z,14.30
2017-10-10T12:07:50.565Z,14.30
2017-10-10T12:10:18.105Z,14.30
2017-10-10T12:12:45.716Z,14.30
2017-10-10T12:15:14.027Z,14.30
2017-10-10T12:17:41.574Z,14.40
2017-10-10T12:20:09.294Z,14.50
2017-10-10T12:22:36.853Z,14.60
2017-10-10T12:25:04.490Z,14.70
2017-10-10T12:27:32.421Z,14.90
2017-10-10T12:30:00.044Z,14.90
2017-10-10T12:32:27.637Z,15.00
2017-10-10T12:34:55.188Z,15.00
2017-10-10T12:37:24.133Z,15.10
2017-10-10T12:39:51.705Z,15.00
2017-10-10T12:42:19.273Z,15.10
2017-10-10T12:44:46.856Z,15.10
2017-10-10T12:47:15.206Z,15.00
2017-10-10T12:49:42.755Z,15.00
2017-10-10T12:52:10.507Z,15.00
2017-10-10T12:54:38.061Z,15.00
2017-10-10T12:57:05.649Z,15.00
2017-10-10T12:59:33.196Z,15.00
2017-10-10T13:02:02.362Z,15.00
2017-10-10T13:04:29.906Z,14.90
2017-10-10T13:06:58.222Z,14.90
2017-10-10T13:09:29.476Z,14.90
2017-10-10T13:11:57.823Z,15.00
2017-10-10T13:14:25.362Z,15.10
2017-10-10T13:16:53.675Z,15.20
2017-10-10T13:19:21.516Z,15.10
2017-10-10T13:21:49.058Z,15.20
2017-10-10T13:24:17.371Z,15.30
2017-10-10T13:26:45.218Z,15.30
2017-10-10T13:29:19.690Z,15.30
2017-10-10T13:31:47.274Z,15.40
2017-10-10T13:34:14.817Z,15.40
2017-10-10T13:36:42.952Z,15.50
2017-10-10T13:39:10.511Z,15.40
2017-10-10T13:41:38.053Z,15.50
2017-10-10T13:44:05.713Z,15.50
2017-10-10T13:46:33.270Z,15.50
2017-10-10T13:49:01.618Z,15.40
2017-10-10T13:51:29.213Z,15.40
2017-10-10T13:53:57.534Z,15.30
2017-10-10T13:56:25.125Z,15.30
2017-10-10T13:58:52.664Z,15.20
2017-10-10T14:01:20.349Z,15.20
2017-10-10T14:03:47.894Z,15.20
2017-10-10T14:06:15.529Z,15.20
2017-10-10T14:08:43.397Z,15.10
2017-10-10T14:11:10.937Z,15.10
2017-10-10T14:13:42.514Z,15.10
2017-10-10T14:16:11.005Z,15.00
2017-10-10T14:18:38.587Z,15.00
2017-10-10T14:21:06.142Z,15.00
2017-10-10T14:23:34.097Z,14.90
2017-10-10T14:26:01.736Z,14.90
2017-10-10T14:28:29.352Z,14.90
2017-10-10T14:30:56.892Z,14.90
2017-10-10T14:33:24.472Z,14.80
2017-10-10T14:35:52.785Z,14.80
2017-10-10T14:38:20.370Z,14.70
2017-10-10T14:40:47.915Z,14.70
2017-10-10T14:43:15.645Z,14.70
2017-10-10T14:45:43.952Z,14.70
2017-10-10T14:48:11.846Z,14.70
2017-10-10T14:50:39.385Z,14.70
2017-10-10T14:53:06.937Z,14.70
2017-10-10T14:55:34.937Z,14.70
2017-10-10T14:58:02.477Z,14.70
2017-10-10T15:00:30.021Z,14.70
2017-10-10T15:02:57.881Z,14.70
2017-10-10T15:05:25.431Z,14.70
2017-10-10T15:07:53.779Z,14.70
2017-10-10T15:10:21.325Z,14.60
2017-10-10T15:12:48.901Z,14.60
2017-10-10T15:15:16.555Z,14.60
2017-10-10T15:17:44.189Z,14.60
2017-10-10T15:20:11.738Z,14.60
2017-10-10T15:22:39.429Z,14.60
2017-10-10T15:25:06.979Z,14.60
2017-10-10T15:27:34.580Z,14.60
2017-10-10T15:30:02.124Z,14.60
2017-10-10T15:32:29.657Z,14.60
2017-10-10T15:34:57.394Z,14.60
2017-10-10T15:37:24.999Z,14.60
2017-10-10T15:39:52.642Z,14.60
2017-10-10T15:42:20.253Z,14.60
2017-10-10T15:44:48.628Z,14.50
2017-10-10T15:47:16.210Z,14.50
2017-10-10T15:49:43.767Z,14.50
2017-10-10T15:52:12.209Z,14.40
2017-10-10T15:54:39.839Z,14.40
2017-10-10T15:57:07.463Z,14.40
2017-10-10T15:59:35.873Z,14.30
2017-10-10T16:02:03.477Z,14.30
2017-10-10T16:04:31.031Z,14.30
2017-10-10T16:07:00.195Z,14.30
2017-10-10T16:09:27.761Z,14.30
2017-10-10T16:11:55.390Z,14.30
2017-10-10T16:14:23.016Z,14.30
2017-10-10T16:16:51.072Z,14.30
2017-10-10T16:19:18.618Z,14.30
2017-10-10T16:21:46.161Z,14.20
2017-10-10T16:24:13.908Z,14.20
2017-10-10T16:26:41.501Z,14.20
2017-10-10T16:29:09.055Z,14.20
2017-10-10T16:31:36.653Z,14.20
2017-10-10T16:34:04.201Z,14.20
2017-10-10T16:36:31.793Z,14.20
2017-10-10T16:39:00.100Z,14.10
2017-10-10T16:41:27.768Z,14.10
2017-10-10T16:43:55.586Z,14.10
2017-10-10T16:46:23.267Z,14.10
2017-10-10T16:48:51.645Z,14.10
2017-10-10T16:51:19.958Z,14.00
2017-10-10T16:53:47.540Z,14.00
2017-10-10T16:56:15.279Z,14.00
2017-10-10T16:58:42.978Z,14.00
2017-10-10T17:01:10.615Z,14.00
2017-10-10T17:03:42.947Z,14.00
2017-10-10T17:06:11.295Z,14.00
2017-10-10T17:08:39.703Z,14.00
2017-10-10T17:11:07.334Z,14.00
2017-10-10T17:13:36.517Z,14.00
2017-10-10T17:16:04.140Z,14.00
2017-10-10T17:18:31.861Z,13.90
2017-10-10T17:20:59.534Z,13.90
2017-10-10T17:23:27.194Z,13.90
2017-10-10T17:25:54.826Z,13.90
2017-10-10T17:28:22.485Z,13.90
2017-10-10T17:30:50.205Z,13.90
2017-10-10T17:33:17.806Z,13.90
2017-10-10T17:35:45.813Z,13.90
2017-10-10T17:38:13.436Z,13.90
2017-10-10T17:40:41.073Z,13.90
2017-10-10T17:43:08.727Z,13.90
2017-10-10T17:45:47.033Z,13.90
2017-10-10T17:48:24.581Z,13.90
2017-10-10T17:51:14.410Z,13.90
2017-10-10T17:53:42.818Z,13.90
2017-10-10T17:56:10.393Z,13.90
2017-10-10T17:58:37.998Z,13.80
2017-10-10T18:01:06.334Z,13.80
2017-10-10T18:03:33.922Z,13.80
2017-10-10T18:06:01.465Z,13.80
2017-10-10T18:08:29.505Z,13.80
2017-10-10T18:10:57.075Z,13.80
2017-10-10T18:13:24.682Z,13.80
2017-10-10T18:15:53.997Z,13.80
2017-10-10T18:18:21.706Z,13.80
2017-10-10T18:20:49.353Z,13.80
2017-10-10T18:23:16.902Z,13.80
2017-10-10T18:25:51.323Z,13.80
2017-10-10T18:31:22.013Z,13.80
2017-10-10T18:33:50.473Z,13.80
2017-10-10T18:36:18.108Z,13.80
2017-10-10T18:38:45.752Z,13.80
2017-10-10T18:43:56.329Z,13.80
2017-10-10T18:46:24.770Z,13.80
2017-10-10T18:48:52.481Z,13.70
2017-10-10T18:51:20.554Z,13.80
2017-10-10T18:53:49.010Z,13.70
2017-10-10T18:56:16.662Z,13.70
2017-10-10T18:58:44.301Z,13.70
2017-10-10T19:01:11.849Z,13.80
2017-10-10T19:03:40.272Z,13.70
2017-10-10T19:06:07.837Z,13.70
2017-10-10T19:08:35.393Z,13.70
2017-10-10T19:11:02.986Z,13.70
2017-10-10T19:13:30.529Z,13.70
2017-10-10T19:15:58.133Z,13.70
2017-10-10T19:18:26.423Z,13.70
2017-10-10T19:20:53.994Z,13.70
2017-10-10T19:23:24.857Z,13.70
2017-10-10T19:25:52.473Z,13.70
2017-10-10T19:28:20.355Z,13.70
2017-10-10T19:30:47.945Z,13.70
2017-10-10T19:33:15.530Z,13.70
2017-10-10T19:35:43.080Z,13.70
2017-10-10T19:38:10.731Z,13.70
2017-10-10T19:40:38.266Z,13.70
2017-10-10T19:43:05.858Z,13.70
2017-10-10T19:45:33.406Z,13.70
2017-10-10T19:48:00.998Z,13.70
2017-10-10T19:50:29.297Z,13.70
2017-10-10T19:52:56.837Z,13.60
2017-10-10T19:55:24.548Z,13.70
2017-10-10T19:57:52.097Z,13.70
2017-10-10T20:00:19.688Z,13.60
2017-10-10T20:02:47.252Z,13.60
2017-10-10T20:05:14.842Z,13.60
2017-10-10T20:07:42.418Z,13.60
2017-10-10T20:10:10.017Z,13.60
2017-10-10T20:12:37.578Z,13.60
2017-10-10T20:15:05.193Z,13.60
2017-10-10T20:17:33.106Z,13.60
2017-10-10T20:20:00.732Z,13.60
2017-10-10T20:22:31.601Z,13.60
2017-10-10T20:24:59.269Z,13.60
2017-10-10T20:30:38.583Z,13.50
2017-10-10T20:33:06.367Z,13.60
2017-10-10T20:35:33.917Z,13.50
2017-10-10T20:38:01.509Z,13.50
2017-10-10T20:40:29.053Z,13.50
2017-10-10T20:42:56.629Z,13.50
2017-10-10T20:45:24.162Z,13.50
2017-10-10T20:47:51.737Z,13.50
2017-10-10T20:50:19.289Z,13.50
2017-10-10T20:52:46.972Z,13.50
2017-10-10T20:55:14.502Z,13.50
2017-10-10T20:57:42.093Z,13.50
2017-10-10T21:00:09.634Z,13.50
2017-10-10T21:02:37.174Z,13.50
2017-10-10T21:05:05.266Z,13.50
2017-10-10T21:07:32.798Z,13.50
2017-10-10T21:10:01.094Z,13.50
2017-10-10T21:12:28.673Z,13.50
2017-10-10T21:14:56.408Z,13.50
2017-10-10T21:17:23.949Z,13.50
2017-10-10T21:19:52.410Z,13.50
2017-10-10T21:22:19.946Z,13.50
2017-10-10T21:24:47.529Z,13.50
2017-10-10T21:27:15.071Z,13.50
2017-10-10T21:29:42.604Z,13.50
2017-10-10T21:32:10.177Z,13.50
2017-10-10T21:34:37.757Z,13.50
2017-10-10T21:37:05.288Z,13.50
2017-10-10T21:39:33.025Z,13.50
2017-10-10T21:42:00.562Z,13.50
2017-10-10T21:44:28.866Z,13.50
2017-10-10T21:46:56.451Z,13.50
2017-10-10T21:49:23.985Z,13.50
2017-10-10T21:51:51.566Z,13.50
2017-10-10T21:54:19.125Z,13.50
2017-10-10T21:56:46.853Z,13.50
2017-10-10T21:59:15.159Z,13.50
2017-10-10T22:01:42.701Z,13.50
2017-10-10T22:04:10.285Z,13.50
2017-10-10T22:06:37.818Z,13.50
2017-10-10T22:09:05.402Z,13.50
2017-10-10T22:11:32.945Z,13.40
2017-10-10T22:14:03.210Z,13.40
2017-10-10T22:16:30.769Z,13.40
2017-10-10T22:18:58.341Z,13.40
2017-10-10T22:21:25.889Z,13.40
2017-10-10T22:23:54.061Z,13.40
2017-10-10T22:26:21.597Z,13.40
2017-10-10T22:28:49.129Z,13.40
2017-10-10T22:31:18.830Z,13.40
2017-10-10T22:33:47.133Z,13.40
2017-10-10T22:36:15.045Z,13.40
2017-10-10T22:38:42.577Z,13.40
2017-10-10T22:41:10.105Z,13.40
2017-10-10T22:43:38.446Z,13.40
2017-10-10T22:46:06.026Z,13.40
2017-10-10T22:48:33.562Z,13.40
2017-10-10T22:51:02.547Z,13.40
2017-10-10T22:53:30.078Z,13.40
2017-10-10T22:55:57.623Z,13.40
2017-10-10T22:58:25.588Z,13.40
2017-10-10T23:00:53.130Z,13.40
2017-10-10T23:03:20.665Z,13.40
2017-10-10T23:05:48.251Z,13.40
2017-10-10T23:08:16.794Z,13.40
2017-10-10T23:10:44.326Z,13.30
2017-10-10T23:13:13.450Z,13.30
2017-10-10T23:15:40.986Z,13.30
2017-10-10T23:18:08.565Z,13.40
2017-10-10T23:20:36.098Z,13.30
2017-10-10T23:23:03.691Z,13.30
2017-10-10T23:25:31.240Z,13.30
2017-10-10T23:27:58.801Z,13.30
2017-10-10T23:30:26.884Z,13.30
2017-10-10T23:32:54.461Z,13.30
2017-10-10T23:35:22.513Z,13.30
2017-10-10T23:37:50.053Z,13.30
2017-10-10T23:40:17.591Z,13.30
2017-10-10T23:42:45.945Z,13.30
2017-10-10T23:45:13.489Z,13.30
2017-10-10T23:47:41.164Z,13.30
2017-10-10T23:50:08.753Z,13.30
2017-10-10T23:52:36.338Z,13.30
2017-10-10T23:55:04.217Z,13.30
2017-10-10T23:57:31.757Z,13.30
2017-10-10T23:59:59.301Z,13.30
